sensor_id;sensor_type;location;lat;lon;timestamp;pressure;altitude;pressure_sealevel;temperature;humidity
58072;BME280;60383;46.626;18.866;2023-06-19T00:00:42;100331.47;;;20.32;70.16
58072;BME280;60383;46.626;18.866;2023-06-19T00:03:07;100322.28;;;20.32;70.49
58072;BME280;60383;46.626;18.866;2023-06-19T00:05:42;100329.84;;;20.50;70.01
58072;BME280;60383;46.626;18.866;2023-06-19T00:08:37;100320.16;;;20.59;70.14
58072;BME280;60383;46.626;18.866;2023-06-19T00:11:28;100312.84;;;20.65;74.03
58072;BME280;60383;46.626;18.866;2023-06-19T00:14:14;100322.69;;;20.61;75.10
58072;BME280;60383;46.626;18.866;2023-06-19T00:16:56;100318.38;;;20.39;75.80
58072;BME280;60383;46.626;18.866;2023-06-19T00:19:46;100317.03;;;20.17;77.47
58072;BME280;60383;46.626;18.866;2023-06-19T00:22:16;100317.91;;;20.10;77.88
58072;BME280;60383;46.626;18.866;2023-06-19T00:24:57;100317.44;;;20.20;77.17
58072;BME280;60383;46.626;18.866;2023-06-19T00:27:39;100310.25;;;20.06;77.82
58072;BME280;60383;46.626;18.866;2023-06-19T00:30:08;100324.34;;;20.11;81.50
58072;BME280;60383;46.626;18.866;2023-06-19T00:32:36;100318.38;;;20.07;80.71
58072;BME280;60383;46.626;18.866;2023-06-19T00:35:43;100320.06;;;20.08;80.10
58072;BME280;60383;46.626;18.866;2023-06-19T00:38:29;100312.34;;;20.10;80.04
58072;BME280;60383;46.626;18.866;2023-06-19T00:44:06;100316.56;;;19.81;81.48
58072;BME280;60383;46.626;18.866;2023-06-19T00:46:37;100312.56;;;19.70;82.61
58072;BME280;60383;46.626;18.866;2023-06-19T00:49:26;100316.78;;;19.86;82.59
58072;BME280;60383;46.626;18.866;2023-06-19T00:52:23;100314.88;;;19.87;82.11
58072;BME280;60383;46.626;18.866;2023-06-19T00:55:07;100307.94;;;19.96;82.10
58072;BME280;60383;46.626;18.866;2023-06-19T00:58:22;100308.44;;;19.86;82.11
58072;BME280;60383;46.626;18.866;2023-06-19T01:01:31;100305.97;;;19.58;81.86
58072;BME280;60383;46.626;18.866;2023-06-19T01:04:15;100302.59;;;19.49;81.64
58072;BME280;60383;46.626;18.866;2023-06-19T01:06:50;100303.44;;;19.50;81.16
58072;BME280;60383;46.626;18.866;2023-06-19T01:09:21;100298.66;;;19.63;80.37
58072;BME280;60383;46.626;18.866;2023-06-19T01:12:33;100301.56;;;19.37;80.67
58072;BME280;60383;46.626;18.866;2023-06-19T01:15:23;100304.78;;;19.34;80.95
58072;BME280;60383;46.626;18.866;2023-06-19T01:18:07;100297.78;;;19.11;81.13
58072;BME280;60383;46.626;18.866;2023-06-19T01:20:40;100297.34;;;19.21;80.71
58072;BME280;60383;46.626;18.866;2023-06-19T01:23:12;100290.97;;;19.07;80.91
58072;BME280;60383;46.626;18.866;2023-06-19T01:26:01;100288.66;;;18.97;80.63
58072;BME280;60383;46.626;18.866;2023-06-19T01:28:29;100297.81;;;18.97;80.49
58072;BME280;60383;46.626;18.866;2023-06-19T01:31:00;100299.31;;;18.87;80.84
58072;BME280;60383;46.626;18.866;2023-06-19T01:33:33;100301.44;;;18.84;80.80
58072;BME280;60383;46.626;18.866;2023-06-19T01:36:06;100292.28;;;18.91;80.59
58072;BME280;60383;46.626;18.866;2023-06-19T01:38:46;100294.63;;;18.80;80.58
58072;BME280;60383;46.626;18.866;2023-06-19T01:41:20;100283.09;;;18.77;80.62
58072;BME280;60383;46.626;18.866;2023-06-19T01:43:47;100279.28;;;18.91;79.57
58072;BME280;60383;46.626;18.866;2023-06-19T01:49:25;100286.09;;;18.75;77.74
58072;BME280;60383;46.626;18.866;2023-06-19T01:51:55;100286.50;;;18.72;77.57
58072;BME280;60383;46.626;18.866;2023-06-19T01:57:47;100293.34;;;18.76;78.68
58072;BME280;60383;46.626;18.866;2023-06-19T02:00:33;100295.69;;;18.73;78.98
58072;BME280;60383;46.626;18.866;2023-06-19T02:03:05;100292.91;;;18.52;79.55
58072;BME280;60383;46.626;18.866;2023-06-19T02:05:57;100291.44;;;18.57;79.18
58072;BME280;60383;46.626;18.866;2023-06-19T02:08:45;100289.94;;;18.47;78.74
58072;BME280;60383;46.626;18.866;2023-06-19T02:11:22;100295.47;;;18.41;78.43
58072;BME280;60383;46.626;18.866;2023-06-19T02:14:01;100305.28;;;18.50;77.92
58072;BME280;60383;46.626;18.866;2023-06-19T02:16:32;100295.69;;;18.39;78.05
58072;BME280;60383;46.626;18.866;2023-06-19T02:19:23;100300.19;;;18.40;78.28
58072;BME280;60383;46.626;18.866;2023-06-19T02:22:17;100298.66;;;18.44;78.95
58072;BME280;60383;46.626;18.866;2023-06-19T02:24:50;100304.88;;;18.53;79.04
58072;BME280;60383;46.626;18.866;2023-06-19T02:27:21;100298.03;;;18.49;78.77
58072;BME280;60383;46.626;18.866;2023-06-19T02:30:15;100306.81;;;18.46;79.19
58072;BME280;60383;46.626;18.866;2023-06-19T02:33:09;100291.84;;;18.40;79.76
58072;BME280;60383;46.626;18.866;2023-06-19T02:35:38;100299.72;;;18.43;80.25
58072;BME280;60383;46.626;18.866;2023-06-19T02:38:11;100302.53;;;18.50;80.49
58072;BME280;60383;46.626;18.866;2023-06-19T02:43:46;100308.28;;;18.48;80.16
58072;BME280;60383;46.626;18.866;2023-06-19T02:46:36;100305.72;;;18.47;79.76
58072;BME280;60383;46.626;18.866;2023-06-19T02:49:21;100312.97;;;18.41;79.92
58072;BME280;60383;46.626;18.866;2023-06-19T02:52:16;100306.38;;;18.56;79.05
58072;BME280;60383;46.626;18.866;2023-06-19T02:55:16;100312.97;;;18.61;79.01
58072;BME280;60383;46.626;18.866;2023-06-19T02:58:05;100309.34;;;18.61;79.46
58072;BME280;60383;46.626;18.866;2023-06-19T03:01:15;100301.47;;;18.64;78.58
58072;BME280;60383;46.626;18.866;2023-06-19T03:03:48;100303.38;;;18.77;77.79
58072;BME280;60383;46.626;18.866;2023-06-19T03:06:30;100303.59;;;18.82;77.16
58072;BME280;60383;46.626;18.866;2023-06-19T03:09:22;100308.28;;;18.62;76.52
58072;BME280;60383;46.626;18.866;2023-06-19T03:11:55;100309.31;;;18.81;77.70
58072;BME280;60383;46.626;18.866;2023-06-19T03:14:21;100308.28;;;19.02;78.92
58072;BME280;60383;46.626;18.866;2023-06-19T03:19:56;100303.09;;;19.26;81.08
58072;BME280;60383;46.626;18.866;2023-06-19T03:22:27;100302.66;;;19.22;81.42
58072;BME280;60383;46.626;18.866;2023-06-19T03:25:18;100295.69;;;18.99;83.17
58072;BME280;60383;46.626;18.866;2023-06-19T03:27:47;100300.38;;;18.99;84.67
58072;BME280;60383;46.626;18.866;2023-06-19T03:33:37;100296.97;;;19.04;84.25
58072;BME280;60383;46.626;18.866;2023-06-19T03:36:21;100307.22;;;18.96;84.58
58072;BME280;60383;46.626;18.866;2023-06-19T03:39:13;100312.09;;;18.67;86.04
58072;BME280;60383;46.626;18.866;2023-06-19T03:42:12;100311.69;;;18.57;88.03
58072;BME280;60383;46.626;18.866;2023-06-19T03:44:52;100309.75;;;18.44;89.31
58072;BME280;60383;46.626;18.866;2023-06-19T03:47:46;100310.63;;;18.65;89.15
58072;BME280;60383;46.626;18.866;2023-06-19T03:50:34;100298.66;;;18.71;89.07
58072;BME280;60383;46.626;18.866;2023-06-19T03:53:12;100309.56;;;18.66;89.73
58072;BME280;60383;46.626;18.866;2023-06-19T03:56:06;100305.50;;;18.89;89.21
58072;BME280;60383;46.626;18.866;2023-06-19T03:58:41;100305.09;;;18.98;88.83
58072;BME280;60383;46.626;18.866;2023-06-19T04:01:30;100308.94;;;19.04;89.49
58072;BME280;60383;46.626;18.866;2023-06-19T04:04:16;100305.28;;;19.10;89.65
58072;BME280;60383;46.626;18.866;2023-06-19T04:07:23;100321.50;;;18.73;92.20
58072;BME280;60383;46.626;18.866;2023-06-19T04:10:11;100317.25;;;18.57;95.07
58072;BME280;60383;46.626;18.866;2023-06-19T04:12:37;100312.53;;;18.58;95.68
58072;BME280;60383;46.626;18.866;2023-06-19T04:15:26;100310.22;;;18.55;96.65
58072;BME280;60383;46.626;18.866;2023-06-19T04:20:46;100311.06;;;18.95;95.30
58072;BME280;60383;46.626;18.866;2023-06-19T04:23:24;100313.34;;;19.19;93.73
58072;BME280;60383;46.626;18.866;2023-06-19T04:26:10;100311.63;;;19.31;92.60
58072;BME280;60383;46.626;18.866;2023-06-19T04:28:50;100312.69;;;19.30;89.22
58072;BME280;60383;46.626;18.866;2023-06-19T04:31:16;100311.63;;;19.31;87.32
58072;BME280;60383;46.626;18.866;2023-06-19T04:34:19;100316.34;;;19.24;88.74
58072;BME280;60383;46.626;18.866;2023-06-19T04:36:57;100313.72;;;19.42;87.35
58072;BME280;60383;46.626;18.866;2023-06-19T04:39:47;100316.31;;;19.37;90.39
58072;BME280;60383;46.626;18.866;2023-06-19T04:42:24;100317.38;;;19.36;90.37
58072;BME280;60383;46.626;18.866;2023-06-19T04:48:07;100314.00;;;19.86;83.78
58072;BME280;60383;46.626;18.866;2023-06-19T04:53:28;100318.09;;;20.16;78.82
58072;BME280;60383;46.626;18.866;2023-06-19T04:55:54;100318.59;;;20.38;78.28
58072;BME280;60383;46.626;18.866;2023-06-19T04:58:31;100314.69;;;20.71;76.62
58072;BME280;60383;46.626;18.866;2023-06-19T05:01:04;100319.78;;;20.81;77.28
58072;BME280;60383;46.626;18.866;2023-06-19T05:03:46;100322.59;;;20.99;73.99
58072;BME280;60383;46.626;18.866;2023-06-19T05:06:12;100319.91;;;21.11;73.05
58072;BME280;60383;46.626;18.866;2023-06-19T05:08:41;100329.34;;;21.29;72.91
58072;BME280;60383;46.626;18.866;2023-06-19T05:14:21;100324.50;;;21.43;70.59
58072;BME280;60383;46.626;18.866;2023-06-19T05:16:53;100325.19;;;21.38;70.51
58072;BME280;60383;46.626;18.866;2023-06-19T05:23:05;100338.72;;;21.34;70.89
58072;BME280;60383;46.626;18.866;2023-06-19T05:25:57;100333.06;;;21.04;72.71
58072;BME280;60383;46.626;18.866;2023-06-19T05:28:33;100341.41;;;21.04;73.24
58072;BME280;60383;46.626;18.866;2023-06-19T05:31:42;100337.94;;;21.09;73.57
58072;BME280;60383;46.626;18.866;2023-06-19T05:34:11;100333.09;;;21.41;74.98
58072;BME280;60383;46.626;18.866;2023-06-19T05:36:39;100333.75;;;21.62;71.34
58072;BME280;60383;46.626;18.866;2023-06-19T05:39:15;100341.69;;;21.77;70.42
58072;BME280;60383;46.626;18.866;2023-06-19T05:41:55;100334.31;;;22.01;70.58
58072;BME280;60383;46.626;18.866;2023-06-19T05:44:23;100332.78;;;22.17;71.24
58072;BME280;60383;46.626;18.866;2023-06-19T05:46:54;100329.25;;;22.40;68.63
58072;BME280;60383;46.626;18.866;2023-06-19T05:49:39;100330.38;;;22.51;70.28
58072;BME280;60383;46.626;18.866;2023-06-19T05:52:28;100335.97;;;22.51;69.27
58072;BME280;60383;46.626;18.866;2023-06-19T05:55:05;100344.00;;;22.59;70.20
58072;BME280;60383;46.626;18.866;2023-06-19T05:57:46;100354.66;;;22.51;68.86
58072;BME280;60383;46.626;18.866;2023-06-19T06:00:46;100361.94;;;22.63;67.44
58072;BME280;60383;46.626;18.866;2023-06-19T06:03:15;100354.69;;;22.74;67.69
58072;BME280;60383;46.626;18.866;2023-06-19T06:05:53;100355.69;;;22.80;67.81
58072;BME280;60383;46.626;18.866;2023-06-19T06:08:59;100352.66;;;23.05;68.47
58072;BME280;60383;46.626;18.866;2023-06-19T06:11:36;100346.63;;;23.20;67.61
58072;BME280;60383;46.626;18.866;2023-06-19T06:14:20;100353.66;;;23.35;67.39
58072;BME280;60383;46.626;18.866;2023-06-19T06:16:55;100359.81;;;23.49;68.82
58072;BME280;60383;46.626;18.866;2023-06-19T06:19:44;100359.59;;;23.50;66.65
58072;BME280;60383;46.626;18.866;2023-06-19T06:22:12;100368.97;;;23.32;66.85
58072;BME280;60383;46.626;18.866;2023-06-19T06:24:48;100373.94;;;23.30;68.24
58072;BME280;60383;46.626;18.866;2023-06-19T06:27:26;100388.03;;;23.35;66.28
58072;BME280;60383;46.626;18.866;2023-06-19T06:29:55;100388.03;;;23.47;65.01
58072;BME280;60383;46.626;18.866;2023-06-19T06:32:21;100384.13;;;23.36;67.16
58072;BME280;60383;46.626;18.866;2023-06-19T06:35:00;100388.84;;;23.59;65.18
58072;BME280;60383;46.626;18.866;2023-06-19T06:38:03;100387.91;;;23.42;65.17
58072;BME280;60383;46.626;18.866;2023-06-19T06:40:33;100389.94;;;23.70;63.30
58072;BME280;60383;46.626;18.866;2023-06-19T06:43:37;100393.50;;;23.18;65.40
58072;BME280;60383;46.626;18.866;2023-06-19T06:46:30;100385.72;;;23.44;65.31
58072;BME280;60383;46.626;18.866;2023-06-19T06:52:20;100393.44;;;23.77;62.67
58072;BME280;60383;46.626;18.866;2023-06-19T06:55:29;100386.25;;;23.93;62.18
58072;BME280;60383;46.626;18.866;2023-06-19T06:58:11;100385.22;;;24.12;62.63
58072;BME280;60383;46.626;18.866;2023-06-19T07:01:00;100382.94;;;24.37;61.70
58072;BME280;60383;46.626;18.866;2023-06-19T07:03:49;100389.09;;;24.22;62.68
58072;BME280;60383;46.626;18.866;2023-06-19T07:06:40;100379.69;;;24.29;63.03
58072;BME280;60383;46.626;18.866;2023-06-19T07:15:58;100382.94;;;24.37;59.48
58072;BME280;60383;46.626;18.866;2023-06-19T07:18:48;100380.81;;;24.45;60.32
58072;BME280;60383;46.626;18.866;2023-06-19T07:21:14;100381.13;;;24.60;61.00
58072;BME280;60383;46.626;18.866;2023-06-19T07:23:50;100380.47;;;24.70;60.66
58072;BME280;60383;46.626;18.866;2023-06-19T07:26:37;100379.31;;;25.00;59.70
58072;BME280;60383;46.626;18.866;2023-06-19T07:29:05;100379.31;;;25.17;58.31
58072;BME280;60383;46.626;18.866;2023-06-19T07:31:42;100377.63;;;24.99;58.28
58072;BME280;60383;46.626;18.866;2023-06-19T07:34:08;100375.22;;;24.91;56.40
58072;BME280;60383;46.626;18.866;2023-06-19T07:37:01;100371.31;;;25.43;56.77
58072;BME280;60383;46.626;18.866;2023-06-19T07:39:31;100365.00;;;25.52;57.26
58072;BME280;60383;46.626;18.866;2023-06-19T07:42:25;100367.19;;;25.50;58.83
58072;BME280;60383;46.626;18.866;2023-06-19T07:44:51;100370.22;;;25.66;56.43
58072;BME280;60383;46.626;18.866;2023-06-19T07:47:38;100365.16;;;25.63;57.05
58072;BME280;60383;46.626;18.866;2023-06-19T07:50:35;100361.13;;;26.20;53.74
58072;BME280;60383;46.626;18.866;2023-06-19T07:53:00;100357.56;;;26.30;54.26
58072;BME280;60383;46.626;18.866;2023-06-19T07:55:38;100361.81;;;26.60;51.92
58072;BME280;60383;46.626;18.866;2023-06-19T07:58:09;100359.03;;;26.38;52.95
58072;BME280;60383;46.626;18.866;2023-06-19T08:01:01;100361.22;;;26.30;47.62
58072;BME280;60383;46.626;18.866;2023-06-19T08:03:26;100361.09;;;26.47;49.76
58072;BME280;60383;46.626;18.866;2023-06-19T08:05:55;100359.38;;;26.41;45.87
58072;BME280;60383;46.626;18.866;2023-06-19T08:08:23;100358.81;;;26.72;48.95
58072;BME280;60383;46.626;18.866;2023-06-19T08:10:57;100366.47;;;26.49;50.53
58072;BME280;60383;46.626;18.866;2023-06-19T08:13:22;100366.81;;;26.85;48.01
58072;BME280;60383;46.626;18.866;2023-06-19T08:15:58;100362.00;;;26.53;49.93
58072;BME280;60383;46.626;18.866;2023-06-19T08:18:45;100366.16;;;26.45;46.76
58072;BME280;60383;46.626;18.866;2023-06-19T08:21:29;100361.81;;;26.92;45.38
58072;BME280;60383;46.626;18.866;2023-06-19T08:23:57;100357.41;;;27.02;44.20
58072;BME280;60383;46.626;18.866;2023-06-19T08:26:48;100361.72;;;27.15;44.08
58072;BME280;60383;46.626;18.866;2023-06-19T08:29:26;100360.41;;;26.90;43.80
58072;BME280;60383;46.626;18.866;2023-06-19T08:31:55;100363.81;;;26.92;44.20
58072;BME280;60383;46.626;18.866;2023-06-19T08:34:23;100362.56;;;26.77;47.43
58072;BME280;60383;46.626;18.866;2023-06-19T08:36:54;100371.88;;;26.83;45.32
58072;BME280;60383;46.626;18.866;2023-06-19T08:39:28;100357.81;;;26.56;45.59
58072;BME280;60383;46.626;18.866;2023-06-19T08:42:14;100358.38;;;27.18;46.33
58072;BME280;60383;46.626;18.866;2023-06-19T08:44:42;100357.13;;;27.41;45.31
58072;BME280;60383;46.626;18.866;2023-06-19T08:47:13;100358.13;;;27.67;45.19
58072;BME280;60383;46.626;18.866;2023-06-19T08:49:45;100348.38;;;27.85;45.35
58072;BME280;60383;46.626;18.866;2023-06-19T08:52:13;100347.66;;;28.16;44.26
58072;BME280;60383;46.626;18.866;2023-06-19T08:54:40;100353.72;;;27.92;44.37
58072;BME280;60383;46.626;18.866;2023-06-19T08:57:16;100343.88;;;27.95;45.94
58072;BME280;60383;46.626;18.866;2023-06-19T09:00:08;100347.63;;;28.05;42.72
58072;BME280;60383;46.626;18.866;2023-06-19T09:03:02;100356.44;;;28.45;42.12
58072;BME280;60383;46.626;18.866;2023-06-19T09:06:02;100347.78;;;28.78;41.81
58072;BME280;60383;46.626;18.866;2023-06-19T09:08:59;100338.59;;;28.03;42.79
58072;BME280;60383;46.626;18.866;2023-06-19T09:11:28;100335.38;;;28.68;41.03
58072;BME280;60383;46.626;18.866;2023-06-19T09:14:11;100341.88;;;28.90;40.41
58072;BME280;60383;46.626;18.866;2023-06-19T09:16:54;100329.28;;;28.03;42.18
58072;BME280;60383;46.626;18.866;2023-06-19T09:20:30;100335.91;;;28.50;40.38
58072;BME280;60383;46.626;18.866;2023-06-19T09:23:31;100340.03;;;28.11;40.69
58072;BME280;60383;46.626;18.866;2023-06-19T09:26:16;100338.75;;;28.91;38.93
58072;BME280;60383;46.626;18.866;2023-06-19T09:29:18;100336.72;;;29.28;39.60
58072;BME280;60383;46.626;18.866;2023-06-19T09:31:57;100328.56;;;29.21;39.55
58072;BME280;60383;46.626;18.866;2023-06-19T09:34:36;100324.94;;;28.84;40.08
58072;BME280;60383;46.626;18.866;2023-06-19T09:37:20;100326.75;;;29.72;39.51
58072;BME280;60383;46.626;18.866;2023-06-19T09:39:52;100331.38;;;29.16;39.49
58072;BME280;60383;46.626;18.866;2023-06-19T09:42:31;100324.66;;;28.96;40.10
58072;BME280;60383;46.626;18.866;2023-06-19T09:45:12;100323.81;;;30.03;34.65
58072;BME280;60383;46.626;18.866;2023-06-19T09:47:55;100315.31;;;29.32;37.96
58072;BME280;60383;46.626;18.866;2023-06-19T09:50:27;100319.84;;;29.07;38.08
58072;BME280;60383;46.626;18.866;2023-06-19T09:53:05;100317.34;;;29.97;35.44
58072;BME280;60383;46.626;18.866;2023-06-19T09:55:49;100319.56;;;29.35;36.88
58072;BME280;60383;46.626;18.866;2023-06-19T09:58:44;100324.91;;;29.05;34.83
58072;BME280;60383;46.626;18.866;2023-06-19T10:01:27;100321.78;;;29.48;34.30
58072;BME280;60383;46.626;18.866;2023-06-19T10:04:20;100312.28;;;29.94;34.47
58072;BME280;60383;46.626;18.866;2023-06-19T10:12:50;100310.84;;;30.81;32.42
58072;BME280;60383;46.626;18.866;2023-06-19T10:18:45;100300.47;;;30.71;31.32
58072;BME280;60383;46.626;18.866;2023-06-19T10:21:23;100309.75;;;31.06;32.61
58072;BME280;60383;46.626;18.866;2023-06-19T10:24:35;100305.84;;;31.02;33.16
58072;BME280;60383;46.626;18.866;2023-06-19T10:27:27;100305.47;;;31.14;31.02
58072;BME280;60383;46.626;18.866;2023-06-19T10:30:20;100299.09;;;31.28;32.30
58072;BME280;60383;46.626;18.866;2023-06-19T10:32:55;100300.38;;;31.16;32.30
58072;BME280;60383;46.626;18.866;2023-06-19T10:35:24;100290.38;;;31.48;30.96
58072;BME280;60383;46.626;18.866;2023-06-19T10:38:50;100287.69;;;31.38;31.11
58072;BME280;60383;46.626;18.866;2023-06-19T10:41:56;100283.56;;;31.25;33.33
58072;BME280;60383;46.626;18.866;2023-06-19T10:44:39;100293.44;;;30.69;34.38
58072;BME280;60383;46.626;18.866;2023-06-19T10:47:41;100283.09;;;30.88;35.25
58072;BME280;60383;46.626;18.866;2023-06-19T10:54:07;100279.06;;;30.95;36.12
58072;BME280;60383;46.626;18.866;2023-06-19T10:59:38;100272.41;;;31.39;33.78
58072;BME280;60383;46.626;18.866;2023-06-19T11:02:29;100274.66;;;31.13;36.28
58072;BME280;60383;46.626;18.866;2023-06-19T11:05:25;100270.81;;;31.28;35.93
58072;BME280;60383;46.626;18.866;2023-06-19T11:11:00;100275.44;;;30.59;34.08
58072;BME280;60383;46.626;18.866;2023-06-19T11:13:25;100267.19;;;30.28;36.13
58072;BME280;60383;46.626;18.866;2023-06-19T11:16:08;100276.50;;;30.69;35.98
58072;BME280;60383;46.626;18.866;2023-06-19T11:19:13;100252.97;;;31.03;34.36
58072;BME280;60383;46.626;18.866;2023-06-19T11:21:57;100264.97;;;30.89;34.70
58072;BME280;60383;46.626;18.866;2023-06-19T11:25:09;100269.84;;;30.09;35.48
58072;BME280;60383;46.626;18.866;2023-06-19T11:27:59;100262.59;;;29.88;35.07
58072;BME280;60383;46.626;18.866;2023-06-19T11:31:07;100264.44;;;29.63;37.28
58072;BME280;60383;46.626;18.866;2023-06-19T11:33:43;100258.56;;;29.49;36.30
58072;BME280;60383;46.626;18.866;2023-06-19T11:36:18;100257.19;;;30.41;36.26
58072;BME280;60383;46.626;18.866;2023-06-19T11:39:04;100256.34;;;30.06;37.05
58072;BME280;60383;46.626;18.866;2023-06-19T11:41:40;100255.47;;;30.06;38.36
58072;BME280;60383;46.626;18.866;2023-06-19T11:44:15;100257.63;;;30.19;36.74
58072;BME280;60383;46.626;18.866;2023-06-19T11:46:56;100249.53;;;30.07;36.21
58072;BME280;60383;46.626;18.866;2023-06-19T11:49:57;100250.59;;;29.67;36.40
58072;BME280;60383;46.626;18.866;2023-06-19T11:58:01;100249.44;;;29.73;36.34
58072;BME280;60383;46.626;18.866;2023-06-19T12:01:03;100247.41;;;30.68;36.15
58072;BME280;60383;46.626;18.866;2023-06-19T12:03:52;100253.81;;;30.74;35.09
58072;BME280;60383;46.626;18.866;2023-06-19T12:06:34;100253.50;;;30.06;36.71
58072;BME280;60383;46.626;18.866;2023-06-19T12:09:11;100248.38;;;30.14;35.08
58072;BME280;60383;46.626;18.866;2023-06-19T12:11:43;100245.03;;;29.51;36.41
58072;BME280;60383;46.626;18.866;2023-06-19T12:14:12;100237.06;;;29.69;37.31
58072;BME280;60383;46.626;18.866;2023-06-19T12:19:34;100240.44;;;30.16;37.83
58072;BME280;60383;46.626;18.866;2023-06-19T12:22:14;100228.22;;;30.31;36.94
58072;BME280;60383;46.626;18.866;2023-06-19T12:24:44;100231.75;;;30.07;39.28
58072;BME280;60383;46.626;18.866;2023-06-19T12:27:25;100224.56;;;30.25;38.70
58072;BME280;60383;46.626;18.866;2023-06-19T12:30:14;100230.63;;;30.42;36.96
58072;BME280;60383;46.626;18.866;2023-06-19T12:32:44;100228.19;;;29.91;37.03
58072;BME280;60383;46.626;18.866;2023-06-19T12:35:41;100227.03;;;29.97;35.55
58072;BME280;60383;46.626;18.866;2023-06-19T12:41:15;100222.38;;;29.67;37.45
58072;BME280;60383;46.626;18.866;2023-06-19T12:44:13;100223.69;;;30.30;37.90
58072;BME280;60383;46.626;18.866;2023-06-19T12:49:50;100223.53;;;30.45;37.44
58072;BME280;60383;46.626;18.866;2023-06-19T12:52:18;100216.00;;;30.70;32.98
58072;BME280;60383;46.626;18.866;2023-06-19T12:55:28;100216.41;;;30.23;34.95
58072;BME280;60383;46.626;18.866;2023-06-19T12:58:25;100221.91;;;30.39;33.57
58072;BME280;60383;46.626;18.866;2023-06-19T13:04:48;100214.16;;;31.14;32.93
58072;BME280;60383;46.626;18.866;2023-06-19T13:07:58;100208.31;;;30.75;32.66
58072;BME280;60383;46.626;18.866;2023-06-19T13:10:33;100213.69;;;30.77;33.10
58072;BME280;60383;46.626;18.866;2023-06-19T13:13:28;100207.88;;;31.17;31.04
58072;BME280;60383;46.626;18.866;2023-06-19T13:19:11;100207.81;;;29.99;34.38
58072;BME280;60383;46.626;18.866;2023-06-19T13:22:00;100204.53;;;30.21;34.30
58072;BME280;60383;46.626;18.866;2023-06-19T13:25:20;100200.00;;;30.60;33.25
58072;BME280;60383;46.626;18.866;2023-06-19T13:28:02;100204.88;;;30.15;34.74
58072;BME280;60383;46.626;18.866;2023-06-19T13:36:49;100195.97;;;29.42;37.46
58072;BME280;60383;46.626;18.866;2023-06-19T13:39:55;100200.63;;;29.01;39.32
58072;BME280;60383;46.626;18.866;2023-06-19T13:45:47;100203.50;;;28.86;39.56
58072;BME280;60383;46.626;18.866;2023-06-19T13:48:30;100195.53;;;29.09;39.53
58072;BME280;60383;46.626;18.866;2023-06-19T13:51:10;100204.88;;;28.99;39.76
58072;BME280;60383;46.626;18.866;2023-06-19T13:53:42;100195.00;;;28.96;39.22
58072;BME280;60383;46.626;18.866;2023-06-19T14:00:03;100195.00;;;29.01;41.06
58072;BME280;60383;46.626;18.866;2023-06-19T14:03:15;100196.13;;;29.00;40.57
58072;BME280;60383;46.626;18.866;2023-06-19T14:09:16;100200.66;;;28.96;42.76
58072;BME280;60383;46.626;18.866;2023-06-19T14:11:49;100193.84;;;29.08;42.63
58072;BME280;60383;46.626;18.866;2023-06-19T14:14:58;100194.13;;;29.16;40.82
58072;BME280;60383;46.626;18.866;2023-06-19T14:17:35;100190.44;;;29.16;40.79
58072;BME280;60383;46.626;18.866;2023-06-19T14:20:08;100185.59;;;29.27;39.83
58072;BME280;60383;46.626;18.866;2023-06-19T14:25:33;100186.16;;;29.84;39.20
58072;BME280;60383;46.626;18.866;2023-06-19T14:31:29;100188.19;;;30.18;39.05
58072;BME280;60383;46.626;18.866;2023-06-19T14:34:18;100187.19;;;30.38;38.92
58072;BME280;60383;46.626;18.866;2023-06-19T14:36:52;100184.25;;;30.54;38.16
58072;BME280;60383;46.626;18.866;2023-06-19T14:39:45;100179.84;;;30.67;37.31
58072;BME280;60383;46.626;18.866;2023-06-19T14:42:39;100187.91;;;30.54;37.90
58072;BME280;60383;46.626;18.866;2023-06-19T14:45:35;100181.41;;;30.49;38.11
58072;BME280;60383;46.626;18.866;2023-06-19T14:48:35;100178.41;;;30.69;37.51
58072;BME280;60383;46.626;18.866;2023-06-19T14:51:04;100170.66;;;30.21;37.32
58072;BME280;60383;46.626;18.866;2023-06-19T14:57:24;100161.91;;;30.82;35.57
58072;BME280;60383;46.626;18.866;2023-06-19T14:59:52;100163.09;;;30.51;34.83
58072;BME280;60383;46.626;18.866;2023-06-19T15:02:27;100168.22;;;30.73;35.38
58072;BME280;60383;46.626;18.866;2023-06-19T15:05:35;100166.84;;;30.71;36.24
58072;BME280;60383;46.626;18.866;2023-06-19T15:08:18;100167.78;;;30.26;38.25
58072;BME280;60383;46.626;18.866;2023-06-19T15:14:09;100169.56;;;30.17;37.11
58072;BME280;60383;46.626;18.866;2023-06-19T15:16:41;100167.72;;;30.32;37.63
58072;BME280;60383;46.626;18.866;2023-06-19T15:19:38;100168.72;;;30.46;37.94
58072;BME280;60383;46.626;18.866;2023-06-19T15:22:21;100170.69;;;30.51;36.88
58072;BME280;60383;46.626;18.866;2023-06-19T15:25:00;100167.09;;;30.40;40.11
58072;BME280;60383;46.626;18.866;2023-06-19T15:27:49;100168.31;;;29.99;41.32
58072;BME280;60383;46.626;18.866;2023-06-19T15:30:17;100167.63;;;30.13;40.24
58072;BME280;60383;46.626;18.866;2023-06-19T15:33:00;100163.31;;;30.20;37.63
58072;BME280;60383;46.626;18.866;2023-06-19T15:35:50;100174.75;;;30.05;37.34
58072;BME280;60383;46.626;18.866;2023-06-19T15:38:24;100166.38;;;29.94;38.25
58072;BME280;60383;46.626;18.866;2023-06-19T15:41:33;100167.25;;;29.85;37.78
58072;BME280;60383;46.626;18.866;2023-06-19T15:44:30;100169.59;;;29.72;39.20
58072;BME280;60383;46.626;18.866;2023-06-19T15:47:01;100170.41;;;29.78;41.65
58072;BME280;60383;46.626;18.866;2023-06-19T15:49:52;100163.50;;;29.55;41.61
58072;BME280;60383;46.626;18.866;2023-06-19T15:58:44;100163.13;;;30.11;39.94